createdAt,value
2022-10-20T00:01:23.672Z,98315.28
2022-10-20T00:03:52.082Z,98325.56
2022-10-20T00:06:23.422Z,98324.78
2022-10-20T00:08:51.437Z,98330.56
2022-10-20T00:11:21.543Z,98330.13
2022-10-20T00:13:51.164Z,98332.78
2022-10-20T00:16:20.181Z,98324.94
2022-10-20T00:18:47.656Z,98332.69
2022-10-20T00:21:18.343Z,98329.81
2022-10-20T00:23:45.574Z,98329.16
2022-10-20T00:26:17.554Z,98321.53
2022-10-20T00:28:45.727Z,98323.00
2022-10-20T00:31:13.613Z,98331.22
2022-10-20T00:33:40.965Z,98324.25
2022-10-20T00:36:11.888Z,98331.59
2022-10-20T00:38:39.125Z,98322.69
2022-10-20T00:41:06.862Z,98325.56
2022-10-20T00:44:00.353Z,98316.19
2022-10-20T00:46:40.613Z,98306.63
2022-10-20T00:49:25.790Z,98314.38
2022-10-20T00:51:54.821Z,98316.03
2022-10-20T00:54:27.336Z,98315.31
2022-10-20T00:56:57.329Z,98306.94
2022-10-20T00:59:31.811Z,98312.66
2022-10-20T01:02:01.438Z,98300.44
2022-10-20T01:04:31.076Z,98296.69
2022-10-20T01:06:59.254Z,98300.97
2022-10-20T01:09:26.935Z,98307.09
2022-10-20T01:11:57.965Z,98311.44
2022-10-20T01:14:39.391Z,98301.22
2022-10-20T01:17:26.703Z,98297.66
2022-10-20T01:20:21.267Z,98299.19
2022-10-20T01:23:33.795Z,98297.41
2022-10-20T01:26:28.668Z,98294.81
2022-10-20T01:29:36.939Z,98301.06
2022-10-20T01:32:18.928Z,98294.25
2022-10-20T01:35:09.276Z,98292.94
2022-10-20T01:38:05.701Z,98302.22
2022-10-20T01:40:50.108Z,98304.25
2022-10-20T01:43:21.896Z,98297.56
2022-10-20T01:45:51.374Z,98307.34
2022-10-20T01:48:25.630Z,98310.19
2022-10-20T01:50:53.328Z,98307.63
2022-10-20T01:53:21.184Z,98307.03
2022-10-20T01:55:52.923Z,98306.88
2022-10-20T01:58:52.963Z,98300.81
2022-10-20T02:01:35.521Z,98303.53
2022-10-20T02:04:05.050Z,98298.72
2022-10-20T02:06:43.516Z,98300.44
2022-10-20T02:09:32.337Z,98296.72
2022-10-20T02:12:24.645Z,98290.44
2022-10-20T02:14:53.491Z,98294.25
2022-10-20T02:17:22.080Z,98300.31
2022-10-20T02:19:53.056Z,98300.72
2022-10-20T02:22:22.022Z,98297.28
2022-10-20T02:24:50.093Z,98298.66
2022-10-20T02:27:30.613Z,98300.28
2022-10-20T02:30:11.918Z,98299.56
2022-10-20T02:32:42.915Z,98301.16
2022-10-20T02:35:17.485Z,98297.63
2022-10-20T02:37:44.818Z,98297.50
2022-10-20T02:40:12.758Z,98306.03
2022-10-20T02:42:40.948Z,98292.47
2022-10-20T02:45:08.970Z,98294.59
2022-10-20T02:47:36.363Z,98301.31
2022-10-20T02:50:04.155Z,98301.75
2022-10-20T02:52:31.820Z,98298.34
2022-10-20T02:54:59.197Z,98295.41
2022-10-20T02:57:27.059Z,98292.09
2022-10-20T02:59:54.342Z,98302.38
2022-10-20T03:02:21.687Z,98295.19
2022-10-20T03:04:48.949Z,98290.81
2022-10-20T03:07:16.751Z,98295.53
2022-10-20T03:09:44.489Z,98295.31
2022-10-20T03:12:11.815Z,98297.53
2022-10-20T03:14:38.945Z,98297.59
2022-10-20T03:17:06.225Z,98291.00
2022-10-20T03:19:33.497Z,98292.66
2022-10-20T03:22:00.760Z,98303.88
2022-10-20T03:24:27.993Z,98298.31
2022-10-20T03:26:55.287Z,98302.13
2022-10-20T03:29:22.664Z,98311.19
2022-10-20T03:34:22.370Z,98309.66
2022-10-20T03:36:49.722Z,98306.19
2022-10-20T03:39:16.987Z,98307.22
2022-10-20T03:41:44.170Z,98299.16
2022-10-20T03:44:11.774Z,98293.28
2022-10-20T03:46:39.256Z,98298.81
2022-10-20T03:49:06.564Z,98295.44
2022-10-20T03:51:33.904Z,98291.81
2022-10-20T03:54:01.085Z,98296.03
2022-10-20T03:56:28.545Z,98296.53
2022-10-20T03:58:55.826Z,98297.56
2022-10-20T04:01:32.606Z,98305.03
2022-10-20T04:03:59.908Z,98297.56
2022-10-20T04:06:27.300Z,98308.78
2022-10-20T04:08:54.821Z,98296.53
2022-10-20T04:11:22.195Z,98301.22
2022-10-20T04:13:49.535Z,98300.59
2022-10-20T04:16:16.754Z,98295.31
2022-10-20T04:18:44.138Z,98290.44
2022-10-20T04:21:11.417Z,98295.25
2022-10-20T04:23:38.641Z,98295.44
2022-10-20T04:26:16.007Z,98287.34
2022-10-20T04:28:43.529Z,98288.59
2022-10-20T04:31:10.759Z,98285.63
2022-10-20T04:33:38.058Z,98290.69
2022-10-20T04:36:10.313Z,98290.22
2022-10-20T04:38:37.616Z,98287.16
2022-10-20T04:41:05.758Z,98295.34
2022-10-20T04:43:34.236Z,98292.63
2022-10-20T04:46:08.573Z,98289.00
2022-10-20T04:48:37.618Z,98293.41
2022-10-20T04:51:09.353Z,98289.47
2022-10-20T04:53:37.119Z,98289.63
2022-10-20T04:56:07.095Z,98282.59
2022-10-20T04:58:35.555Z,98285.03
2022-10-20T05:01:10.500Z,98292.88
2022-10-20T05:03:38.006Z,98285.03
2022-10-20T05:06:12.983Z,98282.13
2022-10-20T05:08:42.409Z,98286.72
2022-10-20T05:11:10.976Z,98287.75
2022-10-20T05:13:38.405Z,98291.03
2022-10-20T05:16:06.810Z,98297.34
2022-10-20T05:18:34.870Z,98298.69
2022-10-20T05:21:16.657Z,98299.81
2022-10-20T05:23:45.227Z,98299.16
2022-10-20T05:26:18.502Z,98302.25
2022-10-20T05:28:49.743Z,98306.56
2022-10-20T05:31:20.046Z,98308.97
2022-10-20T05:33:55.529Z,98308.88
2022-10-20T05:36:26.971Z,98308.78
2022-10-20T05:38:56.048Z,98309.09
2022-10-20T05:41:32.148Z,98320.53
2022-10-20T05:44:05.321Z,98314.56
2022-10-20T05:46:35.155Z,98316.59
2022-10-20T05:49:04.071Z,98326.09
2022-10-20T05:51:35.111Z,98323.53
2022-10-20T05:54:05.199Z,98323.78
2022-10-20T05:56:33.676Z,98319.75
2022-10-20T05:59:00.994Z,98321.06
2022-10-20T06:01:40.326Z,98320.06
2022-10-20T06:04:09.126Z,98324.91
2022-10-20T06:06:36.355Z,98323.75
2022-10-20T06:09:08.084Z,98336.72
2022-10-20T06:11:39.331Z,98342.75
2022-10-20T06:14:10.352Z,98336.25
2022-10-20T06:16:37.653Z,98339.44
2022-10-20T06:19:05.405Z,98341.47
2022-10-20T06:21:35.328Z,98347.69
2022-10-20T06:24:04.891Z,98346.88
2022-10-20T06:26:36.531Z,98345.59
2022-10-20T06:29:06.903Z,98353.16
2022-10-20T06:31:41.295Z,98350.22
2022-10-20T06:34:15.857Z,98355.84
2022-10-20T06:36:44.147Z,98350.19
2022-10-20T06:39:15.825Z,98348.41
2022-10-20T06:41:43.183Z,98342.59
2022-10-20T06:44:20.741Z,98340.16
2022-10-20T06:46:48.590Z,98344.94
2022-10-20T06:49:16.040Z,98349.59
2022-10-20T06:51:43.286Z,98351.78
2022-10-20T06:54:10.595Z,98350.81
2022-10-20T06:56:40.046Z,98350.41
2022-10-20T06:59:07.621Z,98347.09
2022-10-20T07:01:38.554Z,98348.88
2022-10-20T07:04:11.459Z,98340.81
2022-10-20T07:06:41.434Z,98349.22
2022-10-20T07:09:16.914Z,98342.28
2022-10-20T07:11:44.567Z,98340.66
2022-10-20T07:14:14.041Z,98339.63
2022-10-20T07:16:42.087Z,98338.28
2022-10-20T07:19:09.427Z,98343.78
2022-10-20T07:21:38.354Z,98338.50
2022-10-20T07:24:09.449Z,98337.66
2022-10-20T07:26:39.798Z,98338.69
2022-10-20T07:29:07.366Z,98338.84
2022-10-20T07:31:39.574Z,98338.06
2022-10-20T07:34:27.065Z,98342.47
2022-10-20T07:36:56.619Z,98348.06
2022-10-20T07:39:24.834Z,98355.44
2022-10-20T07:41:52.290Z,98364.47
2022-10-20T07:44:19.830Z,98364.47
2022-10-20T07:46:47.198Z,98365.63
2022-10-20T07:52:02.027Z,98370.06
2022-10-20T07:54:29.402Z,98365.84
2022-10-20T07:56:56.976Z,98369.78
2022-10-20T07:59:24.689Z,98365.25
2022-10-20T08:01:54.711Z,98357.81
2022-10-20T08:04:23.448Z,98358.16
2022-10-20T08:06:50.843Z,98360.22
2022-10-20T08:09:18.202Z,98354.72
2022-10-20T08:11:45.508Z,98356.09
2022-10-20T08:14:12.707Z,98356.25
2022-10-20T08:16:48.947Z,98349.44
2022-10-20T08:19:29.927Z,98346.97
2022-10-20T08:21:57.170Z,98341.34
2022-10-20T08:24:24.409Z,98344.06
2022-10-20T08:26:51.749Z,98346.00
2022-10-20T08:29:19.190Z,98335.59
2022-10-20T08:31:46.598Z,98333.72
2022-10-20T08:34:14.115Z,98338.88
2022-10-20T08:36:41.725Z,98325.63
2022-10-20T08:39:09.043Z,98329.22
2022-10-20T08:42:06.510Z,98329.47
2022-10-20T08:44:35.598Z,98309.53
2022-10-20T08:47:13.417Z,98311.28
2022-10-20T08:49:40.862Z,98307.53
2022-10-20T08:52:17.240Z,98318.28
2022-10-20T08:54:44.763Z,98315.75
2022-10-20T08:57:25.975Z,98318.22
2022-10-20T08:59:56.584Z,98319.94
2022-10-20T09:02:23.781Z,98318.94
2022-10-20T09:04:58.709Z,98316.78
2022-10-20T09:07:34.563Z,98315.41
2022-10-20T09:10:37.070Z,98307.59
2022-10-20T09:13:24.643Z,98318.69
2022-10-20T09:16:05.865Z,98311.34
2022-10-20T09:18:34.315Z,98312.72
2022-10-20T09:21:19.095Z,98316.75
2022-10-20T09:24:02.684Z,98314.88
2022-10-20T09:27:02.437Z,98309.09
2022-10-20T09:29:38.854Z,98305.84
2022-10-20T09:32:56.423Z,98312.03
2022-10-20T09:35:22.111Z,98309.06
2022-10-20T09:38:29.538Z,98306.66
2022-10-20T09:41:19.467Z,98300.31
2022-10-20T09:44:06.265Z,98294.03
2022-10-20T09:46:48.736Z,98292.69
2022-10-20T09:49:44.240Z,98295.88
2022-10-20T09:52:30.539Z,98284.78
2022-10-20T09:55:31.483Z,98288.16
2022-10-20T09:58:02.254Z,98280.97
2022-10-20T10:00:43.358Z,98288.78
2022-10-20T10:03:23.024Z,98275.06
2022-10-20T10:05:59.896Z,98281.03
2022-10-20T10:08:42.074Z,98263.22
2022-10-20T10:11:19.520Z,98272.03
2022-10-20T10:13:50.929Z,98269.41
2022-10-20T10:16:22.320Z,98275.53
2022-10-20T10:19:04.832Z,98278.19
2022-10-20T10:21:48.783Z,98267.25
2022-10-20T10:24:48.711Z,98264.81
2022-10-20T10:27:29.140Z,98261.34
2022-10-20T10:30:29.518Z,98253.38
2022-10-20T10:32:57.461Z,98259.69
2022-10-20T10:35:41.132Z,98245.16
2022-10-20T10:38:12.566Z,98256.81
2022-10-20T10:41:10.213Z,98246.84
2022-10-20T10:44:05.085Z,98248.06
2022-10-20T10:46:56.959Z,98249.06
2022-10-20T10:49:44.944Z,98255.69
2022-10-20T10:52:25.124Z,98250.53
2022-10-20T10:55:49.307Z,98243.81
2022-10-20T10:58:23.227Z,98236.44
2022-10-20T11:01:44.309Z,98235.25
2022-10-20T11:04:47.706Z,98236.78
2022-10-20T11:07:51.306Z,98222.97
2022-10-20T11:11:02.503Z,98220.53
2022-10-20T11:13:40.895Z,98222.03
2022-10-20T11:16:37.967Z,98211.50
2022-10-20T11:19:58.749Z,98202.19
2022-10-20T11:22:43.341Z,98201.00
2022-10-20T11:25:33.252Z,98192.56
2022-10-20T11:28:00.612Z,98190.47
2022-10-20T11:30:29.026Z,98185.91
2022-10-20T11:33:09.088Z,98174.19
2022-10-20T11:35:58.337Z,98168.56
2022-10-20T11:38:45.401Z,98163.06
2022-10-20T11:41:38.072Z,98158.19
2022-10-20T11:44:24.533Z,98160.97
2022-10-20T11:47:47.522Z,98147.25
2022-10-20T11:50:17.742Z,98154.34
2022-10-20T11:52:59.002Z,98150.38
2022-10-20T11:55:58.095Z,98144.00
2022-10-20T11:58:56.004Z,98136.16
2022-10-20T12:01:37.246Z,98141.94
2022-10-20T12:04:37.953Z,98145.88
2022-10-20T12:07:32.857Z,98144.53
2022-10-20T12:10:46.440Z,98140.28
2022-10-20T12:13:41.160Z,98125.59
2022-10-20T12:16:08.635Z,98132.47
2022-10-20T12:18:37.645Z,98128.06
2022-10-20T12:21:11.402Z,98124.09
2022-10-20T12:23:49.510Z,98123.00
2022-10-20T12:26:43.901Z,98119.47
2022-10-20T12:29:30.863Z,98117.06
2022-10-20T12:32:25.670Z,98116.72
2022-10-20T12:34:59.108Z,98117.41
2022-10-20T12:37:27.580Z,98115.13
2022-10-20T12:40:08.126Z,98109.78
2022-10-20T12:42:48.040Z,98101.91
2022-10-20T12:45:33.212Z,98103.16
2022-10-20T12:48:02.603Z,98105.53
2022-10-20T12:50:37.141Z,98098.44
2022-10-20T12:53:29.070Z,98097.66
2022-10-20T12:56:12.889Z,98087.31
2022-10-20T12:59:31.216Z,98099.16
2022-10-20T13:02:10.700Z,98089.44
2022-10-20T13:05:06.457Z,98088.38
2022-10-20T13:07:48.940Z,98091.69
2022-10-20T13:10:31.224Z,98089.19
2022-10-20T13:13:04.493Z,98082.91
2022-10-20T13:15:45.090Z,98084.19
2022-10-20T13:18:17.983Z,98080.00
2022-10-20T13:21:06.926Z,98088.84
2022-10-20T13:23:47.939Z,98081.97
2022-10-20T13:26:25.491Z,98074.66
2022-10-20T13:28:59.636Z,98079.66
2022-10-20T13:31:40.190Z,98079.31
2022-10-20T13:34:37.430Z,98084.97
2022-10-20T13:37:35.192Z,98083.44
2022-10-20T13:40:24.373Z,98079.22
2022-10-20T13:43:19.293Z,98073.03
2022-10-20T13:46:32.661Z,98073.66
2022-10-20T13:49:41.904Z,98066.75
2022-10-20T13:52:16.127Z,98072.84
2022-10-20T13:54:49.308Z,98074.03
2022-10-20T13:57:29.215Z,98072.47
2022-10-20T14:00:04.609Z,98064.75
2022-10-20T14:02:36.296Z,98065.81
2022-10-20T14:05:13.979Z,98062.66
2022-10-20T14:07:44.571Z,98072.19
2022-10-20T14:10:33.381Z,98062.91
2022-10-20T14:13:02.780Z,98062.38
2022-10-20T14:15:35.307Z,98054.97
2022-10-20T14:18:07.125Z,98054.91
2022-10-20T14:20:37.837Z,98055.47
2022-10-20T14:23:06.502Z,98060.25
2022-10-20T14:25:34.175Z,98052.56
2022-10-20T14:28:05.160Z,98049.91
2022-10-20T14:30:40.012Z,98049.84
2022-10-20T14:33:16.092Z,98046.88
2022-10-20T14:35:59.024Z,98042.06
2022-10-20T14:38:37.997Z,98041.56
2022-10-20T14:41:08.892Z,98044.16
2022-10-20T14:43:43.107Z,98045.47
2022-10-20T14:46:31.128Z,98051.50
2022-10-20T14:49:00.280Z,98056.81
2022-10-20T14:51:30.173Z,98052.00
2022-10-20T14:54:20.710Z,98053.03
2022-10-20T14:56:57.445Z,98043.16
2022-10-20T14:59:28.242Z,98037.03
2022-10-20T15:02:20.409Z,98040.00
2022-10-20T15:04:52.244Z,98037.84
2022-10-20T15:07:35.864Z,98033.00
2022-10-20T15:10:18.811Z,98032.38
2022-10-20T15:12:49.073Z,98028.59
2022-10-20T15:15:27.976Z,98019.56
2022-10-20T15:18:04.324Z,98016.81
2022-10-20T15:20:40.513Z,98014.69
2022-10-20T15:23:20.447Z,98007.59
2022-10-20T15:26:04.610Z,98003.09
2022-10-20T15:28:43.685Z,98004.59
2022-10-20T15:31:13.808Z,97999.75
2022-10-20T15:33:41.925Z,97998.59
2022-10-20T15:36:21.849Z,97992.47
2022-10-20T15:38:50.881Z,97994.34
2022-10-20T15:41:23.055Z,97993.56
2022-10-20T15:43:50.376Z,97991.81
2022-10-20T15:46:19.391Z,97979.91
2022-10-20T15:48:47.158Z,97987.00
2022-10-20T15:51:29.190Z,97983.75
2022-10-20T15:53:57.553Z,97981.72
2022-10-20T15:56:25.299Z,97978.03
2022-10-20T15:58:52.716Z,97981.81
2022-10-20T16:01:21.911Z,97982.97
2022-10-20T16:03:49.775Z,97987.44
2022-10-20T16:06:19.278Z,97989.34
2022-10-20T16:08:48.966Z,97989.47
2022-10-20T16:11:18.625Z,97986.81
2022-10-20T16:13:45.889Z,97996.81
2022-10-20T16:16:17.628Z,97995.25
2022-10-20T16:18:45.362Z,97990.28
2022-10-20T16:21:12.951Z,97993.16
2022-10-20T16:23:42.651Z,97995.91
2022-10-20T16:26:15.108Z,97998.22
2022-10-20T16:28:42.591Z,97995.47
2022-10-20T16:31:14.186Z,97997.97
2022-10-20T16:33:42.174Z,97992.38
2022-10-20T16:36:12.670Z,98000.16
2022-10-20T16:38:40.528Z,98002.34
2022-10-20T16:41:12.553Z,98002.44
2022-10-20T16:43:45.920Z,98012.94
2022-10-20T16:46:15.943Z,98003.13
2022-10-20T16:48:47.713Z,97997.84
2022-10-20T16:51:16.562Z,97999.31
2022-10-20T16:53:44.164Z,97997.16
2022-10-20T16:56:15.318Z,98003.06
2022-10-20T16:58:45.845Z,97999.88
2022-10-20T17:01:16.045Z,98002.31
2022-10-20T17:03:46.744Z,98004.13
2022-10-20T17:06:15.985Z,98000.66
2022-10-20T17:08:43.515Z,98013.59
2022-10-20T17:11:18.286Z,98021.78
2022-10-20T17:13:45.807Z,98018.03
2022-10-20T17:16:23.551Z,98011.63
2022-10-20T17:18:54.686Z,98011.09
2022-10-20T17:21:22.585Z,98007.41
2022-10-20T17:23:50.215Z,98008.91
2022-10-20T17:26:22.110Z,98006.16
2022-10-20T17:28:50.674Z,98011.25
2022-10-20T17:31:18.665Z,98013.38
2022-10-20T17:33:47.552Z,98005.22
2022-10-20T17:36:15.508Z,98004.91
2022-10-20T17:38:43.315Z,98004.53
2022-10-20T17:41:16.194Z,98008.34
2022-10-20T17:43:44.059Z,97999.00
2022-10-20T17:46:17.651Z,98001.13
2022-10-20T17:48:45.619Z,97991.81
2022-10-20T17:51:20.372Z,97991.53
2022-10-20T17:53:50.577Z,97989.38
2022-10-20T17:56:23.409Z,97996.28
2022-10-20T17:58:52.132Z,97987.91
2022-10-20T18:01:30.718Z,97993.28
2022-10-20T18:04:03.231Z,97993.72
2022-10-20T18:06:34.624Z,97993.38
2022-10-20T18:09:10.877Z,97984.41
2022-10-20T18:11:41.380Z,97986.75
2022-10-20T18:14:08.859Z,97981.44
2022-10-20T18:16:38.320Z,97978.69
2022-10-20T18:19:07.030Z,97978.56
2022-10-20T18:21:34.804Z,97971.59
2022-10-20T18:24:06.078Z,97977.31
2022-10-20T18:26:37.131Z,97974.09
2022-10-20T18:29:08.055Z,97970.09
2022-10-20T18:31:37.734Z,97968.56
2022-10-20T18:34:08.533Z,97964.47
2022-10-20T18:36:39.276Z,97971.53
2022-10-20T18:39:10.266Z,97961.78
2022-10-20T18:41:41.000Z,97959.53
2022-10-20T18:44:14.810Z,97964.91
2022-10-20T18:46:43.122Z,97966.28
2022-10-20T18:49:14.382Z,97960.56
2022-10-20T18:51:44.409Z,97959.59
2022-10-20T18:54:12.152Z,97951.53
2022-10-20T18:56:39.480Z,97957.56
2022-10-20T18:59:12.217Z,97954.00
2022-10-20T19:01:40.764Z,97952.03
2022-10-20T19:04:09.819Z,97951.53
2022-10-20T19:06:43.213Z,97948.31
2022-10-20T19:09:19.946Z,97950.75
2022-10-20T19:14:17.513Z,97948.81
2022-10-20T19:16:47.139Z,97948.91
2022-10-20T19:19:14.701Z,97938.28
2022-10-20T19:21:42.114Z,97939.50
2022-10-20T19:24:19.915Z,97938.75
2022-10-20T19:27:24.486Z,97939.50
2022-10-20T19:29:42.349Z,97938.13
2022-10-20T19:32:09.724Z,97939.44
2022-10-20T19:34:40.988Z,97937.03
2022-10-20T19:37:08.779Z,97931.34
2022-10-20T19:39:40.978Z,97926.91
2022-10-20T19:42:10.273Z,97925.66
2022-10-20T19:44:38.153Z,97918.63
2022-10-20T19:47:08.088Z,97918.31
2022-10-20T19:49:36.151Z,97914.19
2022-10-20T19:52:04.963Z,97911.75
2022-10-20T19:54:32.428Z,97915.63
2022-10-20T19:57:00.093Z,97912.78
2022-10-20T19:59:27.509Z,97915.84
2022-10-20T20:01:54.824Z,97908.53
2022-10-20T20:04:22.018Z,97905.94
2022-10-20T20:06:49.483Z,97911.41
2022-10-20T20:09:17.567Z,97908.25
2022-10-20T20:11:44.879Z,97911.03
2022-10-20T20:14:18.911Z,97903.81
2022-10-20T20:16:47.328Z,97897.78
2022-10-20T20:19:17.041Z,97906.03
2022-10-20T20:21:46.152Z,97904.13
2022-10-20T20:24:14.246Z,97906.38
2022-10-20T20:26:42.419Z,97905.72
2022-10-20T20:29:10.901Z,97896.47
2022-10-20T20:31:38.197Z,97898.53
2022-10-20T20:34:05.405Z,97902.94
2022-10-20T20:36:32.732Z,97899.09
2022-10-20T20:39:00.320Z,97903.03
2022-10-20T20:41:31.014Z,97900.13
2022-10-20T20:43:58.552Z,97899.69
2022-10-20T20:46:30.867Z,97906.09
2022-10-20T20:49:00.390Z,97899.09
2022-10-20T20:51:29.122Z,97895.78
2022-10-20T20:53:56.687Z,97899.03
2022-10-20T20:56:26.783Z,97900.31
2022-10-20T20:58:55.651Z,97885.84
2022-10-20T21:01:29.059Z,97883.91
2022-10-20T21:04:03.697Z,97899.97
2022-10-20T21:06:38.000Z,97893.91
2022-10-20T21:09:16.927Z,97887.69
2022-10-20T21:11:44.164Z,97893.34
2022-10-20T21:14:11.862Z,97898.22
2022-10-20T21:16:39.094Z,97891.00
2022-10-20T21:19:09.763Z,97888.59
2022-10-20T21:21:43.539Z,97885.19
2022-10-20T21:24:12.712Z,97884.53
2022-10-20T21:26:40.516Z,97889.34
2022-10-20T21:29:07.784Z,97891.59
2022-10-20T21:31:35.322Z,97890.63
2022-10-20T21:34:05.581Z,97888.16
2022-10-20T21:36:36.463Z,97886.31
2022-10-20T21:39:09.463Z,97886.31
2022-10-20T21:41:37.695Z,97882.66
2022-10-20T21:44:07.200Z,97883.75
2022-10-20T21:46:49.298Z,97888.75
2022-10-20T21:49:20.207Z,97892.38
2022-10-20T21:51:52.426Z,97894.84
2022-10-20T21:54:23.759Z,97897.31
2022-10-20T21:56:52.012Z,97887.22
2022-10-20T21:59:28.855Z,97888.59
2022-10-20T22:02:01.681Z,97884.38
2022-10-20T22:04:30.418Z,97885.47
2022-10-20T22:06:59.623Z,97885.19
2022-10-20T22:09:27.457Z,97893.34
2022-10-20T22:11:56.737Z,97875.66
2022-10-20T22:14:24.273Z,97877.75
2022-10-20T22:16:51.698Z,97880.16
2022-10-20T22:19:22.241Z,97873.13
2022-10-20T22:21:51.645Z,97873.47
2022-10-20T22:24:19.971Z,97874.63
2022-10-20T22:26:49.514Z,97872.84
2022-10-20T22:29:17.628Z,97872.06
2022-10-20T22:31:44.835Z,97877.53
2022-10-20T22:34:12.622Z,97869.50
2022-10-20T22:36:40.772Z,97870.28
2022-10-20T22:39:09.002Z,97869.31
2022-10-20T22:41:36.762Z,97866.91
2022-10-20T22:44:04.223Z,97869.94
2022-10-20T22:46:31.580Z,97864.47
2022-10-20T22:51:31.005Z,97850.81
2022-10-20T22:53:59.105Z,97851.66
2022-10-20T22:56:26.461Z,97842.81
2022-10-20T22:58:54.821Z,97836.56
2022-10-20T23:01:24.088Z,97840.78
2022-10-20T23:03:52.333Z,97848.91
2022-10-20T23:06:26.101Z,97834.63
2022-10-20T23:08:56.238Z,97845.09
2022-10-20T23:11:24.273Z,97851.41
2022-10-20T23:13:51.727Z,97842.78
2022-10-20T23:16:19.674Z,97833.25
2022-10-20T23:18:47.585Z,97839.09
2022-10-20T23:21:15.260Z,97837.47
2022-10-20T23:23:42.813Z,97829.78
2022-10-20T23:26:11.191Z,97821.66
2022-10-20T23:28:39.399Z,97826.88
2022-10-20T23:31:14.940Z,97823.09
2022-10-20T23:33:44.241Z,97806.38
2022-10-20T23:36:13.172Z,97809.38
2022-10-20T23:38:41.283Z,97806.75
2022-10-20T23:41:09.214Z,97817.28
2022-10-20T23:46:04.301Z,97822.06
2022-10-20T23:48:31.536Z,97828.22
2022-10-20T23:50:58.834Z,97826.78
2022-10-20T23:53:26.426Z,97826.22
2022-10-20T23:55:53.753Z,97827.38
2022-10-20T23:58:22.713Z,97819.31
